sensor_id;sensor_type;location;lat;lon;timestamp;noise_LAeq;noise_LA_min;noise_LA_max;noise_LA01;noise_LA95
72736;Laerm;60856;53.238;10.448;2023-06-10T00:00:33;54.40;53.33;55.90;;
72736;Laerm;60856;53.238;10.448;2023-06-10T00:02:59;54.38;53.30;55.73;;
72736;Laerm;60856;53.238;10.448;2023-06-10T00:05:24;54.34;52.94;55.61;;
72736;Laerm;60856;53.238;10.448;2023-06-10T00:07:49;54.34;53.17;55.50;;
72736;Laerm;60856;53.238;10.448;2023-06-10T00:10:15;54.35;53.19;55.54;;
72736;Laerm;60856;53.238;10.448;2023-06-10T00:12:40;54.35;53.27;55.46;;
72736;Laerm;60856;53.238;10.448;2023-06-10T00:15:07;54.33;53.33;55.27;;
72736;Laerm;60856;53.238;10.448;2023-06-10T00:17:32;54.31;53.24;55.37;;
72736;Laerm;60856;53.238;10.448;2023-06-10T00:19:58;54.31;53.17;55.61;;
72736;Laerm;60856;53.238;10.448;2023-06-10T00:22:23;54.30;53.07;55.42;;
72736;Laerm;60856;53.238;10.448;2023-06-10T00:24:49;54.30;53.33;55.36;;
72736;Laerm;60856;53.238;10.448;2023-06-10T00:27:14;54.29;53.28;55.50;;
72736;Laerm;60856;53.238;10.448;2023-06-10T00:29:40;54.27;53.17;55.44;;
72736;Laerm;60856;53.238;10.448;2023-06-10T00:32:05;51.78;45.14;58.95;;
72736;Laerm;60856;53.238;10.448;2023-06-10T00:34:31;46.58;45.27;49.69;;
72736;Laerm;60856;53.238;10.448;2023-06-10T00:36:57;46.57;45.21;49.55;;
72736;Laerm;60856;53.238;10.448;2023-06-10T00:39:22;46.58;45.01;50.37;;
72736;Laerm;60856;53.238;10.448;2023-06-10T00:41:47;46.60;45.24;50.21;;
72736;Laerm;60856;53.238;10.448;2023-06-10T00:44:13;46.58;45.26;49.80;;
72736;Laerm;60856;53.238;10.448;2023-06-10T00:46:38;46.60;45.24;50.01;;
72736;Laerm;60856;53.238;10.448;2023-06-10T00:49:03;46.57;45.20;49.87;;
72736;Laerm;60856;53.238;10.448;2023-06-10T00:51:29;46.59;45.10;49.96;;
72736;Laerm;60856;53.238;10.448;2023-06-10T00:53:54;46.58;45.27;49.55;;
72736;Laerm;60856;53.238;10.448;2023-06-10T00:56:20;46.61;45.25;49.58;;
72736;Laerm;60856;53.238;10.448;2023-06-10T00:58:46;46.63;45.27;49.50;;
72736;Laerm;60856;53.238;10.448;2023-06-10T01:01:12;46.63;45.26;49.74;;
72736;Laerm;60856;53.238;10.448;2023-06-10T01:03:39;46.86;45.14;50.14;;
72736;Laerm;60856;53.238;10.448;2023-06-10T01:06:24;46.60;45.04;50.13;;
72736;Laerm;60856;53.238;10.448;2023-06-10T01:09:01;46.54;45.11;50.03;;
72736;Laerm;60856;53.238;10.448;2023-06-10T01:11:39;46.53;45.12;49.85;;
72736;Laerm;60856;53.238;10.448;2023-06-10T01:14:06;46.53;45.07;49.88;;
72736;Laerm;60856;53.238;10.448;2023-06-10T01:16:32;46.52;45.28;50.32;;
72736;Laerm;60856;53.238;10.448;2023-06-10T01:19:01;46.53;45.19;49.59;;
72736;Laerm;60856;53.238;10.448;2023-06-10T01:21:26;46.52;45.21;49.41;;
72736;Laerm;60856;53.238;10.448;2023-06-10T01:27:09;46.56;45.17;49.87;;
72736;Laerm;60856;53.238;10.448;2023-06-10T01:30:11;46.53;45.20;49.65;;
72736;Laerm;60856;53.238;10.448;2023-06-10T01:35:43;46.56;45.24;49.53;;
72736;Laerm;60856;53.238;10.448;2023-06-10T01:38:09;46.57;45.18;49.76;;
72736;Laerm;60856;53.238;10.448;2023-06-10T01:40:35;46.56;45.37;50.16;;
72736;Laerm;60856;53.238;10.448;2023-06-10T01:43:01;46.56;45.29;49.77;;
72736;Laerm;60856;53.238;10.448;2023-06-10T01:45:26;46.56;45.18;50.46;;
72736;Laerm;60856;53.238;10.448;2023-06-10T01:47:52;46.58;45.12;50.49;;
72736;Laerm;60856;53.238;10.448;2023-06-10T01:50:17;46.54;45.25;49.54;;
72736;Laerm;60856;53.238;10.448;2023-06-10T01:52:43;46.51;45.27;49.87;;
72736;Laerm;60856;53.238;10.448;2023-06-10T01:55:17;46.53;45.17;50.77;;
72736;Laerm;60856;53.238;10.448;2023-06-10T01:57:55;46.54;45.24;49.77;;
72736;Laerm;60856;53.238;10.448;2023-06-10T02:00:21;46.54;45.24;49.83;;
72736;Laerm;60856;53.238;10.448;2023-06-10T02:02:48;46.54;45.04;49.67;;
72736;Laerm;60856;53.238;10.448;2023-06-10T02:05:13;46.55;45.34;49.67;;
72736;Laerm;60856;53.238;10.448;2023-06-10T02:07:38;46.54;45.17;49.90;;
72736;Laerm;60856;53.238;10.448;2023-06-10T02:10:04;46.54;45.26;49.45;;
72736;Laerm;60856;53.238;10.448;2023-06-10T02:12:30;46.53;45.22;49.94;;
72736;Laerm;60856;53.238;10.448;2023-06-10T02:14:55;46.53;45.30;49.57;;
72736;Laerm;60856;53.238;10.448;2023-06-10T02:17:20;46.52;45.23;49.56;;
72736;Laerm;60856;53.238;10.448;2023-06-10T02:19:46;46.52;45.24;49.63;;
72736;Laerm;60856;53.238;10.448;2023-06-10T02:22:21;46.51;45.05;49.92;;
72736;Laerm;60856;53.238;10.448;2023-06-10T02:24:47;46.54;45.17;50.40;;
72736;Laerm;60856;53.238;10.448;2023-06-10T02:27:12;46.53;45.19;50.00;;
72736;Laerm;60856;53.238;10.448;2023-06-10T02:29:38;46.54;45.02;49.55;;
72736;Laerm;60856;53.238;10.448;2023-06-10T02:32:03;46.55;45.16;50.06;;
72736;Laerm;60856;53.238;10.448;2023-06-10T02:34:29;46.53;45.02;50.14;;
72736;Laerm;60856;53.238;10.448;2023-06-10T02:36:54;46.56;45.29;49.74;;
72736;Laerm;60856;53.238;10.448;2023-06-10T02:39:21;46.54;45.25;49.86;;
72736;Laerm;60856;53.238;10.448;2023-06-10T02:41:46;46.53;45.27;49.66;;
72736;Laerm;60856;53.238;10.448;2023-06-10T02:44:11;46.55;45.25;49.64;;
72736;Laerm;60856;53.238;10.448;2023-06-10T02:46:37;46.55;45.09;50.17;;
72736;Laerm;60856;53.238;10.448;2023-06-10T02:49:02;46.57;44.97;49.50;;
72736;Laerm;60856;53.238;10.448;2023-06-10T02:51:27;46.54;45.24;49.67;;
72736;Laerm;60856;53.238;10.448;2023-06-10T02:53:53;46.55;45.24;49.89;;
72736;Laerm;60856;53.238;10.448;2023-06-10T02:56:19;46.56;45.03;49.84;;
72736;Laerm;60856;53.238;10.448;2023-06-10T02:58:45;46.55;44.93;50.08;;
72736;Laerm;60856;53.238;10.448;2023-06-10T03:01:10;46.56;45.19;49.58;;
72736;Laerm;60856;53.238;10.448;2023-06-10T03:03:36;46.54;45.16;50.28;;
72736;Laerm;60856;53.238;10.448;2023-06-10T03:06:05;46.55;45.31;50.44;;
72736;Laerm;60856;53.238;10.448;2023-06-10T03:08:30;46.55;45.20;49.70;;
72736;Laerm;60856;53.238;10.448;2023-06-10T03:10:56;46.54;45.37;50.67;;
72736;Laerm;60856;53.238;10.448;2023-06-10T03:13:21;46.53;45.18;49.65;;
72736;Laerm;60856;53.238;10.448;2023-06-10T03:15:46;46.55;45.24;49.51;;
72736;Laerm;60856;53.238;10.448;2023-06-10T03:18:11;46.55;45.19;49.68;;
72736;Laerm;60856;53.238;10.448;2023-06-10T03:20:37;46.53;45.15;50.01;;
72736;Laerm;60856;53.238;10.448;2023-06-10T03:23:04;46.54;45.33;49.79;;
72736;Laerm;60856;53.238;10.448;2023-06-10T03:25:31;46.54;45.31;49.47;;
72736;Laerm;60856;53.238;10.448;2023-06-10T03:27:56;46.54;45.22;49.84;;
72736;Laerm;60856;53.238;10.448;2023-06-10T03:30:22;46.53;45.26;49.67;;
72736;Laerm;60856;53.238;10.448;2023-06-10T03:32:47;46.53;45.29;49.58;;
72736;Laerm;60856;53.238;10.448;2023-06-10T03:35:13;46.57;45.27;49.63;;
72736;Laerm;60856;53.238;10.448;2023-06-10T03:37:39;46.55;45.21;49.64;;
72736;Laerm;60856;53.238;10.448;2023-06-10T03:40:05;46.55;45.30;49.50;;
72736;Laerm;60856;53.238;10.448;2023-06-10T03:42:31;46.55;45.01;49.45;;
72736;Laerm;60856;53.238;10.448;2023-06-10T03:44:56;46.58;45.26;49.92;;
72736;Laerm;60856;53.238;10.448;2023-06-10T03:47:21;46.53;45.22;49.91;;
72736;Laerm;60856;53.238;10.448;2023-06-10T03:49:46;46.56;45.17;49.57;;
72736;Laerm;60856;53.238;10.448;2023-06-10T03:52:14;46.56;45.11;49.87;;
72736;Laerm;60856;53.238;10.448;2023-06-10T03:54:39;46.56;45.26;49.65;;
72736;Laerm;60856;53.238;10.448;2023-06-10T03:57:05;46.55;45.25;50.22;;
72736;Laerm;60856;53.238;10.448;2023-06-10T03:59:31;46.55;45.14;49.54;;
72736;Laerm;60856;53.238;10.448;2023-06-10T04:01:56;46.56;45.08;49.88;;
72736;Laerm;60856;53.238;10.448;2023-06-10T04:04:22;46.55;45.26;49.79;;
72736;Laerm;60856;53.238;10.448;2023-06-10T04:06:48;46.55;45.15;49.50;;
72736;Laerm;60856;53.238;10.448;2023-06-10T04:09:13;46.58;45.27;49.55;;
72736;Laerm;60856;53.238;10.448;2023-06-10T04:11:39;46.58;45.40;49.79;;
72736;Laerm;60856;53.238;10.448;2023-06-10T04:14:04;46.57;45.37;49.88;;
72736;Laerm;60856;53.238;10.448;2023-06-10T04:16:30;46.56;45.06;49.76;;
72736;Laerm;60856;53.238;10.448;2023-06-10T04:18:55;46.57;45.29;49.84;;
72736;Laerm;60856;53.238;10.448;2023-06-10T04:21:20;46.56;45.31;49.64;;
72736;Laerm;60856;53.238;10.448;2023-06-10T04:23:46;46.55;45.09;49.67;;
72736;Laerm;60856;53.238;10.448;2023-06-10T04:26:12;46.55;45.22;49.57;;
72736;Laerm;60856;53.238;10.448;2023-06-10T04:28:37;46.55;45.18;49.67;;
72736;Laerm;60856;53.238;10.448;2023-06-10T04:31:02;46.56;45.21;49.70;;
72736;Laerm;60856;53.238;10.448;2023-06-10T04:33:29;46.57;45.14;50.06;;
72736;Laerm;60856;53.238;10.448;2023-06-10T04:35:54;46.56;45.23;49.70;;
72736;Laerm;60856;53.238;10.448;2023-06-10T04:38:19;46.57;45.25;49.66;;
72736;Laerm;60856;53.238;10.448;2023-06-10T04:40:45;46.57;45.31;49.78;;
72736;Laerm;60856;53.238;10.448;2023-06-10T04:43:11;46.54;45.29;49.97;;
72736;Laerm;60856;53.238;10.448;2023-06-10T04:45:36;46.57;45.23;49.40;;
72736;Laerm;60856;53.238;10.448;2023-06-10T04:48:01;46.57;45.24;49.62;;
72736;Laerm;60856;53.238;10.448;2023-06-10T04:50:27;46.57;45.26;50.19;;
72736;Laerm;60856;53.238;10.448;2023-06-10T04:52:52;46.57;45.01;49.74;;
72736;Laerm;60856;53.238;10.448;2023-06-10T04:55:17;46.55;45.28;50.65;;
72736;Laerm;60856;53.238;10.448;2023-06-10T04:57:42;46.59;45.27;50.59;;
72736;Laerm;60856;53.238;10.448;2023-06-10T05:00:08;46.59;45.00;49.92;;
72736;Laerm;60856;53.238;10.448;2023-06-10T05:02:33;46.56;45.21;49.75;;
72736;Laerm;60856;53.238;10.448;2023-06-10T05:04:58;46.56;45.36;50.05;;
72736;Laerm;60856;53.238;10.448;2023-06-10T05:07:24;46.57;45.23;49.86;;
72736;Laerm;60856;53.238;10.448;2023-06-10T05:09:49;46.58;45.39;49.50;;
72736;Laerm;60856;53.238;10.448;2023-06-10T05:12:14;46.57;45.16;50.53;;
72736;Laerm;60856;53.238;10.448;2023-06-10T05:14:39;46.60;45.19;49.81;;
72736;Laerm;60856;53.238;10.448;2023-06-10T05:17:05;46.59;45.32;49.98;;
72736;Laerm;60856;53.238;10.448;2023-06-10T05:19:31;46.62;45.25;49.94;;
72736;Laerm;60856;53.238;10.448;2023-06-10T05:21:56;46.61;45.25;49.79;;
72736;Laerm;60856;53.238;10.448;2023-06-10T05:24:22;46.60;45.31;50.15;;
72736;Laerm;60856;53.238;10.448;2023-06-10T05:26:48;46.59;45.19;49.67;;
72736;Laerm;60856;53.238;10.448;2023-06-10T05:29:13;46.61;45.40;50.37;;
72736;Laerm;60856;53.238;10.448;2023-06-10T05:31:40;46.60;45.40;50.47;;
72736;Laerm;60856;53.238;10.448;2023-06-10T05:34:05;46.61;45.35;50.11;;
72736;Laerm;60856;53.238;10.448;2023-06-10T05:36:30;46.62;45.22;50.45;;
72736;Laerm;60856;53.238;10.448;2023-06-10T05:38:55;46.62;45.32;49.86;;
72736;Laerm;60856;53.238;10.448;2023-06-10T05:41:21;46.64;45.26;49.60;;
72736;Laerm;60856;53.238;10.448;2023-06-10T05:46:15;52.31;45.38;57.55;;
72736;Laerm;60856;53.238;10.448;2023-06-10T05:48:40;54.88;50.18;57.50;;
72736;Laerm;60856;53.238;10.448;2023-06-10T05:51:05;56.89;54.08;60.65;;
72736;Laerm;60856;53.238;10.448;2023-06-10T05:53:31;59.77;52.18;64.85;;
72736;Laerm;60856;53.238;10.448;2023-06-10T05:55:56;57.78;51.95;62.46;;
72736;Laerm;60856;53.238;10.448;2023-06-10T05:58:22;59.02;55.91;61.05;;
72736;Laerm;60856;53.238;10.448;2023-06-10T06:00:48;62.75;59.20;66.19;;
72736;Laerm;60856;53.238;10.448;2023-06-10T06:03:13;65.51;62.31;67.44;;
72736;Laerm;60856;53.238;10.448;2023-06-10T06:05:38;62.75;60.35;66.57;;
72736;Laerm;60856;53.238;10.448;2023-06-10T06:08:04;63.27;60.61;66.82;;
72736;Laerm;60856;53.238;10.448;2023-06-10T06:10:29;65.61;61.25;67.62;;
72736;Laerm;60856;53.238;10.448;2023-06-10T06:12:55;61.96;60.29;64.74;;
72736;Laerm;60856;53.238;10.448;2023-06-10T06:15:20;62.37;60.53;64.71;;
72736;Laerm;60856;53.238;10.448;2023-06-10T06:17:45;63.78;61.57;65.84;;
72736;Laerm;60856;53.238;10.448;2023-06-10T06:20:10;61.91;52.61;65.06;;
72736;Laerm;60856;53.238;10.448;2023-06-10T06:22:36;63.31;61.07;66.37;;
72736;Laerm;60856;53.238;10.448;2023-06-10T06:25:01;62.60;60.95;65.41;;
72736;Laerm;60856;53.238;10.448;2023-06-10T06:27:26;63.52;61.65;66.13;;
72736;Laerm;60856;53.238;10.448;2023-06-10T06:29:51;65.48;62.55;67.30;;
72736;Laerm;60856;53.238;10.448;2023-06-10T06:32:17;64.56;56.96;67.37;;
72736;Laerm;60856;53.238;10.448;2023-06-10T06:34:42;60.14;57.31;62.37;;
72736;Laerm;60856;53.238;10.448;2023-06-10T06:37:07;60.52;57.36;62.48;;
72736;Laerm;60856;53.238;10.448;2023-06-10T06:39:32;60.47;54.38;62.34;;
72736;Laerm;60856;53.238;10.448;2023-06-10T06:41:58;59.73;54.78;62.31;;
72736;Laerm;60856;53.238;10.448;2023-06-10T06:44:23;56.52;53.28;59.06;;
72736;Laerm;60856;53.238;10.448;2023-06-10T06:46:48;55.95;52.96;59.41;;
72736;Laerm;60856;53.238;10.448;2023-06-10T06:49:14;58.08;53.91;60.90;;
72736;Laerm;60856;53.238;10.448;2023-06-10T06:51:39;57.92;52.94;61.11;;
72736;Laerm;60856;53.238;10.448;2023-06-10T06:54:04;59.08;54.61;61.17;;
72736;Laerm;60856;53.238;10.448;2023-06-10T06:56:30;59.64;52.80;62.30;;
72736;Laerm;60856;53.238;10.448;2023-06-10T06:58:55;57.29;49.62;63.18;;
72736;Laerm;60856;53.238;10.448;2023-06-10T07:01:21;54.40;49.60;60.67;;
72736;Laerm;60856;53.238;10.448;2023-06-10T07:03:46;58.24;53.82;61.33;;
72736;Laerm;60856;53.238;10.448;2023-06-10T07:06:12;59.35;56.08;61.88;;
72736;Laerm;60856;53.238;10.448;2023-06-10T07:08:37;56.03;49.00;62.89;;
72736;Laerm;60856;53.238;10.448;2023-06-10T07:11:02;55.81;52.29;59.24;;
72736;Laerm;60856;53.238;10.448;2023-06-10T07:13:27;55.34;52.18;60.35;;
72736;Laerm;60856;53.238;10.448;2023-06-10T07:15:53;53.63;51.88;55.38;;
72736;Laerm;60856;53.238;10.448;2023-06-10T07:18:18;53.42;52.16;54.88;;
72736;Laerm;60856;53.238;10.448;2023-06-10T07:20:43;53.26;52.00;54.67;;
72736;Laerm;60856;53.238;10.448;2023-06-10T07:23:08;53.68;52.07;55.79;;
72736;Laerm;60856;53.238;10.448;2023-06-10T07:25:34;54.63;52.12;56.30;;
72736;Laerm;60856;53.238;10.448;2023-06-10T07:27:59;54.04;51.96;56.53;;
72736;Laerm;60856;53.238;10.448;2023-06-10T07:30:24;53.80;52.05;56.87;;
72736;Laerm;60856;53.238;10.448;2023-06-10T07:32:50;53.30;51.98;54.73;;
72736;Laerm;60856;53.238;10.448;2023-06-10T07:35:16;53.43;52.14;54.98;;
72736;Laerm;60856;53.238;10.448;2023-06-10T07:37:42;53.57;52.05;55.59;;
72736;Laerm;60856;53.238;10.448;2023-06-10T07:40:07;54.29;52.66;55.89;;
72736;Laerm;60856;53.238;10.448;2023-06-10T07:42:34;53.54;52.19;55.01;;
72736;Laerm;60856;53.238;10.448;2023-06-10T07:44:59;53.64;52.27;55.25;;
72736;Laerm;60856;53.238;10.448;2023-06-10T07:47:24;53.95;52.71;55.38;;
72736;Laerm;60856;53.238;10.448;2023-06-10T07:49:50;55.02;52.93;56.97;;
72736;Laerm;60856;53.238;10.448;2023-06-10T07:52:16;56.46;55.05;58.14;;
72736;Laerm;60856;53.238;10.448;2023-06-10T07:54:41;57.42;56.18;58.62;;
72736;Laerm;60856;53.238;10.448;2023-06-10T07:57:06;57.12;55.74;58.34;;
72736;Laerm;60856;53.238;10.448;2023-06-10T07:59:34;56.92;55.94;57.89;;
72736;Laerm;60856;53.238;10.448;2023-06-10T08:02:00;56.90;55.76;57.89;;
72736;Laerm;60856;53.238;10.448;2023-06-10T08:04:25;56.85;55.91;57.90;;
72736;Laerm;60856;53.238;10.448;2023-06-10T08:06:50;56.80;55.76;57.99;;
72736;Laerm;60856;53.238;10.448;2023-06-10T08:09:16;56.75;55.67;57.68;;
72736;Laerm;60856;53.238;10.448;2023-06-10T08:11:41;56.69;55.70;57.83;;
72736;Laerm;60856;53.238;10.448;2023-06-10T08:14:06;56.65;55.64;57.69;;
72736;Laerm;60856;53.238;10.448;2023-06-10T08:16:31;56.64;55.63;57.59;;
72736;Laerm;60856;53.238;10.448;2023-06-10T08:18:57;56.66;55.27;57.57;;
72736;Laerm;60856;53.238;10.448;2023-06-10T08:21:22;56.70;55.65;57.66;;
72736;Laerm;60856;53.238;10.448;2023-06-10T08:23:47;56.73;55.56;57.76;;
72736;Laerm;60856;53.238;10.448;2023-06-10T08:26:12;56.70;55.72;57.65;;
72736;Laerm;60856;53.238;10.448;2023-06-10T08:28:38;56.66;55.65;57.60;;
72736;Laerm;60856;53.238;10.448;2023-06-10T08:31:03;56.66;55.59;57.67;;
72736;Laerm;60856;53.238;10.448;2023-06-10T08:33:28;56.62;55.67;57.65;;
72736;Laerm;60856;53.238;10.448;2023-06-10T08:35:53;56.58;55.65;57.63;;
72736;Laerm;60856;53.238;10.448;2023-06-10T08:38:19;56.60;55.61;57.53;;
72736;Laerm;60856;53.238;10.448;2023-06-10T08:40:44;56.65;55.69;57.58;;
72736;Laerm;60856;53.238;10.448;2023-06-10T08:45:54;56.62;55.62;57.56;;
72736;Laerm;60856;53.238;10.448;2023-06-10T08:48:24;56.58;55.58;57.48;;
72736;Laerm;60856;53.238;10.448;2023-06-10T08:50:51;56.56;55.39;57.53;;
72736;Laerm;60856;53.238;10.448;2023-06-10T08:53:18;56.56;55.58;57.60;;
72736;Laerm;60856;53.238;10.448;2023-06-10T08:55:48;56.52;55.53;57.47;;
72736;Laerm;60856;53.238;10.448;2023-06-10T08:58:16;56.54;55.50;57.65;;
72736;Laerm;60856;53.238;10.448;2023-06-10T09:00:41;56.50;55.56;57.47;;
72736;Laerm;60856;53.238;10.448;2023-06-10T09:03:07;56.48;55.54;57.52;;
72736;Laerm;60856;53.238;10.448;2023-06-10T09:05:34;56.42;55.41;57.35;;
72736;Laerm;60856;53.238;10.448;2023-06-10T09:07:59;56.39;55.31;57.38;;
72736;Laerm;60856;53.238;10.448;2023-06-10T09:10:25;56.36;55.31;57.40;;
72736;Laerm;60856;53.238;10.448;2023-06-10T09:12:50;56.40;55.36;57.32;;
72736;Laerm;60856;53.238;10.448;2023-06-10T09:15:16;56.47;55.42;57.48;;
72736;Laerm;60856;53.238;10.448;2023-06-10T09:17:42;56.50;55.26;57.54;;
72736;Laerm;60856;53.238;10.448;2023-06-10T09:20:08;56.45;55.51;57.75;;
72736;Laerm;60856;53.238;10.448;2023-06-10T09:22:33;56.41;55.36;57.42;;
72736;Laerm;60856;53.238;10.448;2023-06-10T09:25:06;56.38;55.38;57.32;;
72736;Laerm;60856;53.238;10.448;2023-06-10T09:27:32;56.41;55.28;57.46;;
72736;Laerm;60856;53.238;10.448;2023-06-10T09:29:57;56.42;55.41;57.47;;
72736;Laerm;60856;53.238;10.448;2023-06-10T09:32:23;56.43;55.33;57.42;;
72736;Laerm;60856;53.238;10.448;2023-06-10T09:34:49;56.43;55.55;57.42;;
72736;Laerm;60856;53.238;10.448;2023-06-10T09:37:23;56.46;55.39;57.43;;
72736;Laerm;60856;53.238;10.448;2023-06-10T09:40:04;56.50;55.47;57.42;;
72736;Laerm;60856;53.238;10.448;2023-06-10T09:42:31;56.46;55.46;57.35;;
72736;Laerm;60856;53.238;10.448;2023-06-10T09:44:57;56.43;55.43;57.49;;
72736;Laerm;60856;53.238;10.448;2023-06-10T09:47:22;56.40;55.39;57.37;;
72736;Laerm;60856;53.238;10.448;2023-06-10T09:49:50;56.39;55.31;57.52;;
72736;Laerm;60856;53.238;10.448;2023-06-10T09:52:24;56.43;55.26;57.51;;
72736;Laerm;60856;53.238;10.448;2023-06-10T09:54:50;56.44;55.44;57.49;;
72736;Laerm;60856;53.238;10.448;2023-06-10T09:57:17;56.47;55.37;57.44;;
72736;Laerm;60856;53.238;10.448;2023-06-10T09:59:42;56.43;55.43;57.47;;
72736;Laerm;60856;53.238;10.448;2023-06-10T10:02:13;56.41;55.33;57.26;;
72736;Laerm;60856;53.238;10.448;2023-06-10T10:04:38;56.41;55.34;57.51;;
72736;Laerm;60856;53.238;10.448;2023-06-10T10:07:03;56.42;55.35;57.43;;
72736;Laerm;60856;53.238;10.448;2023-06-10T10:09:29;56.42;55.43;57.38;;
72736;Laerm;60856;53.238;10.448;2023-06-10T10:11:54;56.41;55.32;57.39;;
72736;Laerm;60856;53.238;10.448;2023-06-10T10:14:20;56.43;55.44;57.52;;
72736;Laerm;60856;53.238;10.448;2023-06-10T10:16:46;56.42;55.36;57.36;;
72736;Laerm;60856;53.238;10.448;2023-06-10T10:19:12;56.38;55.36;57.27;;
72736;Laerm;60856;53.238;10.448;2023-06-10T10:21:40;56.39;55.36;57.78;;
72736;Laerm;60856;53.238;10.448;2023-06-10T10:26:33;56.41;55.12;57.46;;
72736;Laerm;60856;53.238;10.448;2023-06-10T10:31:24;56.44;55.49;57.37;;
72736;Laerm;60856;53.238;10.448;2023-06-10T10:33:55;56.47;55.36;57.44;;
72736;Laerm;60856;53.238;10.448;2023-06-10T10:36:23;56.46;55.44;57.37;;
72736;Laerm;60856;53.238;10.448;2023-06-10T10:38:48;56.45;55.31;57.41;;
72736;Laerm;60856;53.238;10.448;2023-06-10T10:41:16;56.43;55.45;57.48;;
72736;Laerm;60856;53.238;10.448;2023-06-10T10:43:43;56.42;55.34;57.37;;
72736;Laerm;60856;53.238;10.448;2023-06-10T10:46:13;56.45;55.49;57.62;;
72736;Laerm;60856;53.238;10.448;2023-06-10T10:48:39;56.43;55.45;57.47;;
72736;Laerm;60856;53.238;10.448;2023-06-10T10:51:06;56.45;55.26;57.54;;
72736;Laerm;60856;53.238;10.448;2023-06-10T10:53:31;56.45;55.45;57.36;;
72736;Laerm;60856;53.238;10.448;2023-06-10T10:56:00;56.44;55.39;57.57;;
72736;Laerm;60856;53.238;10.448;2023-06-10T10:58:29;56.44;55.39;57.51;;
72736;Laerm;60856;53.238;10.448;2023-06-10T11:00:54;56.44;55.40;57.44;;
72736;Laerm;60856;53.238;10.448;2023-06-10T11:03:20;56.43;55.34;57.51;;
72736;Laerm;60856;53.238;10.448;2023-06-10T11:05:46;56.42;55.56;57.36;;
72736;Laerm;60856;53.238;10.448;2023-06-10T11:08:45;56.41;55.40;57.35;;
72736;Laerm;60856;53.238;10.448;2023-06-10T11:11:02;56.39;55.36;57.46;;
72736;Laerm;60856;53.238;10.448;2023-06-10T11:13:42;56.41;55.45;57.37;;
72736;Laerm;60856;53.238;10.448;2023-06-10T11:16:22;56.40;55.52;57.33;;
72736;Laerm;60856;53.238;10.448;2023-06-10T11:18:53;56.39;55.48;57.34;;
72736;Laerm;60856;53.238;10.448;2023-06-10T11:21:18;56.40;55.32;57.38;;
72736;Laerm;60856;53.238;10.448;2023-06-10T11:23:43;56.42;55.36;57.39;;
72736;Laerm;60856;53.238;10.448;2023-06-10T11:26:09;56.39;55.47;57.33;;
72736;Laerm;60856;53.238;10.448;2023-06-10T11:28:35;56.38;55.30;57.47;;
72736;Laerm;60856;53.238;10.448;2023-06-10T11:31:01;56.38;55.26;57.29;;
72736;Laerm;60856;53.238;10.448;2023-06-10T11:33:26;56.35;55.31;57.39;;
72736;Laerm;60856;53.238;10.448;2023-06-10T11:35:52;56.32;55.33;57.33;;
72736;Laerm;60856;53.238;10.448;2023-06-10T11:38:17;56.33;55.42;57.65;;
72736;Laerm;60856;53.238;10.448;2023-06-10T11:40:49;56.35;55.32;57.33;;
72736;Laerm;60856;53.238;10.448;2023-06-10T11:43:16;56.36;55.42;57.54;;
72736;Laerm;60856;53.238;10.448;2023-06-10T11:45:42;56.38;55.38;57.47;;
72736;Laerm;60856;53.238;10.448;2023-06-10T11:48:09;56.38;55.25;57.36;;
72736;Laerm;60856;53.238;10.448;2023-06-10T11:50:34;56.35;55.39;57.39;;
72736;Laerm;60856;53.238;10.448;2023-06-10T11:52:59;56.32;55.38;57.33;;
72736;Laerm;60856;53.238;10.448;2023-06-10T11:55:25;56.31;55.28;57.43;;
72736;Laerm;60856;53.238;10.448;2023-06-10T11:57:51;56.29;55.19;57.32;;
72736;Laerm;60856;53.238;10.448;2023-06-10T12:00:22;56.27;55.20;57.13;;
72736;Laerm;60856;53.238;10.448;2023-06-10T12:02:54;56.23;55.24;57.29;;
72736;Laerm;60856;53.238;10.448;2023-06-10T12:05:20;56.22;54.93;57.16;;
72736;Laerm;60856;53.238;10.448;2023-06-10T12:07:45;56.21;54.99;57.26;;
72736;Laerm;60856;53.238;10.448;2023-06-10T12:10:11;56.21;55.36;57.64;;
72736;Laerm;60856;53.238;10.448;2023-06-10T12:12:36;56.20;55.12;57.21;;
72736;Laerm;60856;53.238;10.448;2023-06-10T12:15:06;56.20;55.27;57.19;;
72736;Laerm;60856;53.238;10.448;2023-06-10T12:20:02;56.21;55.11;57.32;;
72736;Laerm;60856;53.238;10.448;2023-06-10T12:22:38;56.20;55.20;57.29;;
72736;Laerm;60856;53.238;10.448;2023-06-10T12:25:04;56.18;55.18;57.24;;
72736;Laerm;60856;53.238;10.448;2023-06-10T12:27:31;56.19;55.23;57.33;;
72736;Laerm;60856;53.238;10.448;2023-06-10T12:29:57;56.17;55.16;57.32;;
72736;Laerm;60856;53.238;10.448;2023-06-10T12:35:03;56.17;55.18;57.11;;
72736;Laerm;60856;53.238;10.448;2023-06-10T12:37:29;56.16;55.14;57.18;;
72736;Laerm;60856;53.238;10.448;2023-06-10T12:39:55;56.18;55.15;57.19;;
72736;Laerm;60856;53.238;10.448;2023-06-10T12:42:22;56.20;55.03;57.21;;
72736;Laerm;60856;53.238;10.448;2023-06-10T12:44:47;56.21;55.20;57.17;;
72736;Laerm;60856;53.238;10.448;2023-06-10T12:47:17;56.21;55.28;57.27;;
72736;Laerm;60856;53.238;10.448;2023-06-10T12:49:43;56.20;55.05;57.30;;
72736;Laerm;60856;53.238;10.448;2023-06-10T12:52:08;56.19;55.17;57.13;;
72736;Laerm;60856;53.238;10.448;2023-06-10T12:54:33;56.20;54.90;57.29;;
72736;Laerm;60856;53.238;10.448;2023-06-10T12:56:59;56.20;55.13;57.18;;
72736;Laerm;60856;53.238;10.448;2023-06-10T12:59:24;56.20;55.19;57.15;;
72736;Laerm;60856;53.238;10.448;2023-06-10T13:01:53;56.19;55.27;57.13;;
72736;Laerm;60856;53.238;10.448;2023-06-10T13:04:19;56.22;55.13;57.18;;
72736;Laerm;60856;53.238;10.448;2023-06-10T13:06:45;56.21;55.20;57.18;;
72736;Laerm;60856;53.238;10.448;2023-06-10T13:09:12;56.21;55.18;57.43;;
72736;Laerm;60856;53.238;10.448;2023-06-10T13:11:37;56.23;55.03;57.28;;
72736;Laerm;60856;53.238;10.448;2023-06-10T13:14:04;56.23;55.22;57.17;;
72736;Laerm;60856;53.238;10.448;2023-06-10T13:16:30;56.20;55.15;57.24;;
72736;Laerm;60856;53.238;10.448;2023-06-10T13:18:55;56.24;55.19;57.32;;
72736;Laerm;60856;53.238;10.448;2023-06-10T13:21:20;56.24;55.31;57.25;;
72736;Laerm;60856;53.238;10.448;2023-06-10T13:23:46;56.24;55.27;57.50;;
72736;Laerm;60856;53.238;10.448;2023-06-10T13:26:15;56.26;55.08;57.30;;
72736;Laerm;60856;53.238;10.448;2023-06-10T13:28:43;56.27;55.21;57.22;;
72736;Laerm;60856;53.238;10.448;2023-06-10T13:31:08;56.29;55.26;57.24;;
72736;Laerm;60856;53.238;10.448;2023-06-10T13:33:34;56.32;55.30;57.32;;
72736;Laerm;60856;53.238;10.448;2023-06-10T13:35:59;56.32;55.23;57.29;;
72736;Laerm;60856;53.238;10.448;2023-06-10T13:38:24;56.33;55.15;57.37;;
72736;Laerm;60856;53.238;10.448;2023-06-10T13:40:49;56.36;55.47;57.32;;
72736;Laerm;60856;53.238;10.448;2023-06-10T13:43:15;56.43;55.33;57.47;;
72736;Laerm;60856;53.238;10.448;2023-06-10T13:45:41;56.47;55.47;57.56;;
72736;Laerm;60856;53.238;10.448;2023-06-10T13:48:06;56.47;55.47;57.40;;